Time;durP1;ratioP1;P1;durP2;ratioP2;P2;SDS_P1;SDS_P2;PMS_P1;PMS_P2;Temp;Humidity;BMP_temperature;BMP_pressure;BME280_temperature;BME280_humidity;BME280_pressure;Samples;Min_cycle;Max_cycle;Signal;HPM_P1;HPM_P2
2021/07/16 00:01:22;;;;;;;6.93;6.43;;;21.30;99.90;;;;;;5093804;28;20542;-86
2021/07/16 00:03:49;;;;;;;6.83;6.43;;;21.30;99.90;;;;;;5093628;28;20455;-86
2021/07/16 00:06:16;;;;;;;7.53;6.93;;;21.30;99.90;;;;;;5093471;28;20509;-86
2021/07/16 00:08:42;;;;;;;7.47;6.97;;;21.30;99.90;;;;;;5093427;28;20892;-86
2021/07/16 00:11:09;;;;;;;7.80;7.20;;;21.30;99.90;;;;;;5092018;28;20965;-85
2021/07/16 00:13:35;;;;;;;7.53;7.03;;;21.30;99.90;;;;;;5072860;28;21100;-85
2021/07/16 00:16:02;;;;;;;8.40;7.60;;;21.40;99.90;;;;;;5073106;28;20535;-85
2021/07/16 00:18:30;;;;;;;7.57;6.97;;;21.30;99.90;;;;;;5073096;28;20611;-83
2021/07/16 00:20:57;;;;;;;7.97;7.27;;;21.30;99.90;;;;;;5072832;28;20969;-84
2021/07/16 00:23:24;;;;;;;8.30;7.70;;;21.20;99.90;;;;;;5072956;28;20443;-84
2021/07/16 00:25:50;;;;;;;8.33;6.93;;;21.20;99.90;;;;;;5072808;28;20483;-84
2021/07/16 00:28:17;;;;;;;7.60;7.00;;;21.20;99.90;;;;;;5072912;28;21143;-84
2021/07/16 00:30:43;;;;;;;7.40;6.70;;;21.20;99.90;;;;;;5072897;28;20546;-84
2021/07/16 00:33:10;;;;;;;6.27;5.77;;;21.10;99.90;;;;;;5072833;28;21049;-84
2021/07/16 00:35:38;;;;;;;7.40;6.87;;;21.10;99.90;;;;;;5073054;28;20490;-84
2021/07/16 00:38:05;;;;;;;7.43;6.83;;;21.10;99.90;;;;;;5072859;28;20496;-84
2021/07/16 00:40:32;;;;;;;7.90;7.30;;;21.10;99.90;;;;;;5072559;28;20451;-84
2021/07/16 00:42:58;;;;;;;8.00;7.30;;;21.00;99.90;;;;;;5072791;28;20463;-85
2021/07/16 00:45:25;;;;;;;7.63;7.03;;;21.00;99.90;;;;;;5072873;28;20542;-86
2021/07/16 00:47:52;;;;;;;8.00;7.20;;;20.90;99.90;;;;;;5072893;28;20490;-86
2021/07/16 00:50:21;;;;;;;8.93;8.13;;;20.90;99.90;;;;;;5072633;28;20509;-86
2021/07/16 00:52:49;;;;;;;8.43;7.73;;;20.90;99.90;;;;;;5072516;28;20474;-84
2021/07/16 00:55:17;;;;;;;8.77;7.70;;;20.90;99.90;;;;;;5072356;28;21029;-85
2021/07/16 00:57:45;;;;;;;7.50;6.80;;;20.80;99.90;;;;;;5073998;28;20973;-85
2021/07/16 01:00:12;;;;;;;8.93;8.13;;;20.80;99.90;;;;;;5076426;28;20505;-84
2021/07/16 01:02:39;;;;;;;8.10;7.43;;;20.80;99.90;;;;;;5076577;28;20486;-84
2021/07/16 01:05:08;;;;;;;8.10;7.30;;;20.70;99.90;;;;;;5076438;28;20491;-84
2021/07/16 01:07:34;;;;;;;7.87;7.20;;;20.70;99.90;;;;;;5076577;28;20486;-85
2021/07/16 01:10:03;;;;;;;7.90;7.20;;;20.70;99.90;;;;;;5076649;28;20534;-85
2021/07/16 01:12:31;;;;;;;7.00;6.50;;;20.70;99.90;;;;;;5088631;28;20489;-84
2021/07/16 01:14:59;;;;;;;8.47;7.43;;;20.70;99.90;;;;;;5096795;28;20446;-84
2021/07/16 01:17:29;;;;;;;9.43;8.33;;;20.70;99.90;;;;;;5096563;28;20478;-84
2021/07/16 01:20:00;;;;;;;8.33;7.60;;;20.70;99.90;;;;;;5096679;28;20457;-85
2021/07/16 01:22:28;;;;;;;9.63;8.73;;;20.70;99.90;;;;;;5096425;28;20459;-84
2021/07/16 01:24:56;;;;;;;8.30;7.57;;;20.70;99.90;;;;;;5096659;28;20540;-84
2021/07/16 01:27:23;;;;;;;8.67;8.00;;;20.70;99.90;;;;;;5096387;28;20535;-84
2021/07/16 01:29:50;;;;;;;8.70;8.00;;;20.70;99.90;;;;;;5096919;28;20840;-84
2021/07/16 01:32:17;;;;;;;9.00;8.10;;;20.60;99.90;;;;;;5096314;28;20869;-84
2021/07/16 01:34:45;;;;;;;8.70;7.87;;;20.60;99.90;;;;;;5095989;28;20984;-84
2021/07/16 01:37:11;;;;;;;9.10;8.03;;;20.60;99.90;;;;;;5096318;28;20473;-84
2021/07/16 01:39:38;;;;;;;7.70;7.20;;;20.60;99.90;;;;;;5096208;28;21044;-84
2021/07/16 01:42:07;;;;;;;8.97;8.10;;;20.60;99.90;;;;;;5096102;28;20492;-84
2021/07/16 01:44:35;;;;;;;9.33;8.33;;;20.50;99.90;;;;;;5096250;28;20545;-83
2021/07/16 01:47:02;;;;;;;8.60;8.00;;;20.50;99.90;;;;;;5092837;28;20536;-84
2021/07/16 01:49:29;;;;;;;8.07;7.47;;;20.50;99.90;;;;;;5075727;28;20538;-85
2021/07/16 01:51:56;;;;;;;8.13;7.43;;;20.50;99.90;;;;;;5075950;28;20863;-85
2021/07/16 01:54:22;;;;;;;8.23;7.53;;;20.50;99.90;;;;;;5071956;28;20918;-84
2021/07/16 01:56:49;;;;;;;8.20;7.50;;;20.50;99.90;;;;;;5075446;28;20514;-83
2021/07/16 01:59:17;;;;;;;8.50;7.80;;;20.40;99.90;;;;;;5074736;28;20475;-84
2021/07/16 02:01:43;;;;;;;8.00;7.40;;;20.40;99.90;;;;;;5075765;28;20542;-84
2021/07/16 02:04:11;;;;;;;8.20;7.50;;;20.40;99.90;;;;;;5075391;28;20455;-85
2021/07/16 02:06:40;;;;;;;8.67;7.93;;;20.30;99.90;;;;;;5075381;28;20814;-84
2021/07/16 02:09:08;;;;;;;8.53;7.60;;;20.30;99.90;;;;;;5075292;28;20868;-84
2021/07/16 02:11:35;;;;;;;8.00;7.30;;;20.30;99.90;;;;;;5079928;28;20537;-84
2021/07/16 02:14:02;;;;;;;8.70;8.07;;;20.30;99.90;;;;;;5095223;28;20517;-84
2021/07/16 02:16:30;;;;;;;8.03;7.23;;;20.30;99.90;;;;;;5095536;28;20446;-84
2021/07/16 02:18:56;;;;;;;8.13;7.50;;;20.30;99.90;;;;;;5095412;28;20496;-84
2021/07/16 02:21:23;;;;;;;9.00;8.30;;;20.20;99.90;;;;;;5095455;28;20546;-84
2021/07/16 02:23:50;;;;;;;9.77;8.77;;;20.20;99.90;;;;;;5095298;28;20888;-84
2021/07/16 02:26:17;;;;;;;9.43;8.53;;;20.20;99.90;;;;;;5095236;28;20501;-84
2021/07/16 02:28:44;;;;;;;8.30;7.50;;;20.20;99.90;;;;;;5095219;28;20453;-83
2021/07/16 02:31:13;;;;;;;8.70;8.00;;;20.10;99.90;;;;;;5095309;28;20531;-83
2021/07/16 02:33:41;;;;;;;8.47;7.43;;;20.20;99.90;;;;;;5095110;28;20474;-83
2021/07/16 02:36:09;;;;;;;8.23;7.63;;;20.10;99.90;;;;;;5084218;28;20454;-84
2021/07/16 02:38:36;;;;;;;8.53;7.93;;;20.10;99.90;;;;;;5075264;28;20542;-84
2021/07/16 02:41:03;;;;;;;7.17;6.53;;;20.10;99.90;;;;;;5074546;28;20947;-83
2021/07/16 02:43:29;;;;;;;8.00;7.27;;;20.20;99.90;;;;;;5074878;28;20511;-83
2021/07/16 02:45:56;;;;;;;9.13;8.43;;;20.20;99.90;;;;;;5074713;28;20501;-84
2021/07/16 02:48:23;;;;;;;8.90;7.97;;;20.20;99.90;;;;;;5074728;28;20444;-84
2021/07/16 02:50:50;;;;;;;8.03;7.33;;;20.20;99.90;;;;;;5074597;28;20479;-84
2021/07/16 02:53:20;;;;;;;8.47;7.67;;;20.10;99.90;;;;;;5074413;28;20567;-84
2021/07/16 02:55:47;;;;;;;8.70;7.97;;;20.20;99.90;;;;;;5074344;28;20475;-84
2021/07/16 02:58:15;;;;;;;7.90;7.40;;;20.20;99.90;;;;;;5074587;28;20501;-84
2021/07/16 03:00:41;;;;;;;9.47;8.00;;;20.20;99.90;;;;;;5074449;28;20447;-83
2021/07/16 03:03:09;;;;;;;8.40;7.70;;;20.20;99.90;;;;;;5074209;28;21014;-83
2021/07/16 03:05:37;;;;;;;9.30;8.60;;;20.10;99.90;;;;;;5074129;28;20538;-84
2021/07/16 03:08:07;;;;;;;8.10;7.40;;;20.10;99.90;;;;;;5074062;28;21010;-84
2021/07/16 03:10:36;;;;;;;8.67;7.43;;;20.10;99.90;;;;;;5074207;28;20467;-85
2021/07/16 03:13:05;;;;;;;9.13;8.33;;;20.10;99.90;;;;;;5074108;28;20471;-84
2021/07/16 03:15:32;;;;;;;8.67;7.87;;;20.10;99.90;;;;;;5074208;28;20479;-84
2021/07/16 03:18:00;;;;;;;8.50;7.80;;;20.10;99.90;;;;;;5074111;28;20542;-84
2021/07/16 03:20:29;;;;;;;8.23;7.53;;;20.10;99.90;;;;;;5073485;28;20478;-85
2021/07/16 03:22:56;;;;;;;7.80;7.20;;;20.10;99.90;;;;;;5073850;28;21027;-84
2021/07/16 03:25:25;;;;;;;9.13;8.23;;;20.10;99.90;;;;;;5073933;28;20574;-84
2021/07/16 03:27:52;;;;;;;9.47;8.23;;;20.10;99.90;;;;;;5073974;28;20568;-84
2021/07/16 03:30:21;;;;;;;8.40;7.70;;;20.10;99.90;;;;;;5073770;28;20530;-83
2021/07/16 03:32:48;;;;;;;9.50;8.80;;;20.10;99.90;;;;;;5073763;28;20725;-84
2021/07/16 03:35:16;;;;;;;8.90;8.17;;;20.10;99.90;;;;;;5073354;28;20511;-84
2021/07/16 03:37:44;;;;;;;8.17;7.57;;;20.10;99.90;;;;;;5073729;28;20475;-84
2021/07/16 03:40:12;;;;;;;10.10;9.20;;;20.10;99.90;;;;;;5073515;28;20483;-84
2021/07/16 03:42:41;;;;;;;8.70;8.00;;;20.10;99.90;;;;;;5073669;28;20494;-84
2021/07/16 03:45:12;;;;;;;10.20;9.07;;;20.10;99.90;;;;;;5073534;28;20502;-84
2021/07/16 03:47:39;;;;;;;10.63;8.30;;;20.10;99.90;;;;;;5073471;28;20504;-84
2021/07/16 03:50:06;;;;;;;9.13;8.40;;;20.10;99.90;;;;;;5073440;28;20875;-84
2021/07/16 03:52:33;;;;;;;8.97;8.27;;;20.20;99.90;;;;;;5073517;28;20443;-84
2021/07/16 03:55:04;;;;;;;7.80;7.20;;;20.20;99.90;;;;;;5073084;28;20518;-85
2021/07/16 03:57:30;;;;;;;9.50;8.60;;;20.20;99.90;;;;;;5073523;28;20845;-84
2021/07/16 04:00:01;;;;;;;8.57;7.77;;;20.20;99.90;;;;;;5073264;28;20483;-84
2021/07/16 04:02:28;;;;;;;7.90;7.27;;;20.30;99.90;;;;;;5073049;28;20452;-84
2021/07/16 04:04:55;;;;;;;7.83;7.13;;;20.30;99.90;;;;;;5073115;28;20539;-84
2021/07/16 04:07:25;;;;;;;9.47;8.60;;;20.40;99.90;;;;;;5073091;28;20451;-84
2021/07/16 04:09:52;;;;;;;8.63;8.03;;;20.40;99.90;;;;;;5073213;28;20497;-84
2021/07/16 04:12:19;;;;;;;9.40;8.47;;;20.40;99.90;;;;;;5083613;28;20497;-84
2021/07/16 04:14:48;;;;;;;8.80;7.90;;;20.50;99.90;;;;;;5093032;28;20509;-84
2021/07/16 04:17:17;;;;;;;10.13;8.83;;;20.50;99.90;;;;;;5093313;28;20852;-85
2021/07/16 04:19:46;;;;;;;9.53;8.60;;;20.60;99.90;;;;;;5093367;28;20485;-84
2021/07/16 04:22:12;;;;;;;9.50;8.80;;;20.60;99.90;;;;;;5093256;28;20456;-84
2021/07/16 04:24:40;;;;;;;9.60;8.90;;;20.70;99.90;;;;;;5093089;28;20537;-83
2021/07/16 04:27:09;;;;;;;9.20;8.40;;;20.70;99.90;;;;;;5092941;28;20747;-85
2021/07/16 04:29:36;;;;;;;9.07;8.33;;;20.80;99.90;;;;;;5093223;28;20530;-85
2021/07/16 04:32:04;;;;;;;9.80;9.00;;;20.80;99.90;;;;;;5092012;28;20965;-86
2021/07/16 04:34:33;;;;;;;9.27;8.37;;;20.90;99.90;;;;;;5092876;28;20478;-86
2021/07/16 04:37:01;;;;;;;9.17;8.27;;;21.00;99.90;;;;;;5092875;28;20458;-84
2021/07/16 04:39:28;;;;;;;8.50;7.90;;;21.00;99.90;;;;;;5092921;28;20478;-84
2021/07/16 04:41:55;;;;;;;9.43;8.53;;;21.10;99.90;;;;;;5092665;28;20474;-84
2021/07/16 04:44:24;;;;;;;9.20;8.30;;;21.20;99.90;;;;;;5093033;28;20583;-85
2021/07/16 04:46:50;;;;;;;8.23;7.63;;;21.30;99.90;;;;;;5093007;28;20478;-84
2021/07/16 04:49:18;;;;;;;10.13;9.33;;;21.30;99.90;;;;;;5083354;28;20443;-84
2021/07/16 04:51:46;;;;;;;10.90;9.90;;;21.30;99.90;;;;;;5072491;28;20505;-84
2021/07/16 04:54:15;;;;;;;15.20;10.00;;;21.40;99.90;;;;;;5072644;28;20534;-85
2021/07/16 04:56:42;;;;;;;9.77;8.87;;;21.40;99.90;;;;;;5072556;28;20571;-84
2021/07/16 04:59:11;;;;;;;9.90;9.00;;;21.50;99.90;;;;;;5073089;28;20544;-84
2021/07/16 05:01:38;;;;;;;10.83;9.83;;;21.50;99.90;;;;;;5073251;28;20501;-84
2021/07/16 05:04:05;;;;;;;10.97;10.10;;;21.50;99.90;;;;;;5072840;28;20447;-84
2021/07/16 05:06:32;;;;;;;11.43;10.33;;;21.60;99.90;;;;;;5072564;28;20455;-83
2021/07/16 05:09:00;;;;;;;10.80;9.77;;;21.60;99.90;;;;;;5072676;28;20542;-83
2021/07/16 05:11:26;;;;;;;8.80;8.20;;;21.70;99.90;;;;;;5076113;28;20492;-83
2021/07/16 05:13:53;;;;;;;8.97;8.17;;;21.80;99.90;;;;;;5092997;28;20508;-84
2021/07/16 05:16:20;;;;;;;9.67;8.87;;;21.90;99.90;;;;;;5093102;28;20844;-83
2021/07/16 05:18:46;;;;;;;8.10;7.50;;;22.00;99.90;;;;;;5092950;28;20478;-84
2021/07/16 05:21:14;;;;;;;7.90;7.27;;;22.10;99.90;;;;;;5092738;28;21024;-84
2021/07/16 05:23:41;;;;;;;8.13;7.53;;;22.40;99.90;;;;;;5092790;28;20482;-83
2021/07/16 05:26:09;;;;;;;8.90;8.20;;;22.50;99.90;;;;;;5092870;28;20854;-84
2021/07/16 05:28:35;;;;;;;8.20;7.60;;;22.60;99.90;;;;;;5092751;28;20573;-83
2021/07/16 05:31:02;;;;;;;9.23;8.33;;;22.80;99.90;;;;;;5092616;28;20457;-84
2021/07/16 05:33:28;;;;;;;8.47;7.67;;;22.90;99.90;;;;;;5092499;28;20958;-84
2021/07/16 05:35:55;;;;;;;8.23;7.50;;;23.00;99.90;;;;;;5092500;28;20478;-84
2021/07/16 05:38:25;;;;;;;7.10;6.60;;;23.10;99.90;;;;;;5092659;28;20492;-84
2021/07/16 05:40:51;;;;;;;7.03;6.53;;;23.20;99.90;;;;;;5092754;28;20836;-84
2021/07/16 05:43:19;;;;;;;8.13;6.90;;;23.30;99.90;;;;;;5093397;28;21017;-84
2021/07/16 05:45:46;;;;;;;9.43;7.67;;;23.40;99.90;;;;;;5096175;28;20454;-84
2021/07/16 05:48:12;;;;;;;7.37;6.67;;;23.50;99.90;;;;;;5096269;28;20493;-85
2021/07/16 05:50:40;;;;;;;8.60;7.70;;;23.60;99.90;;;;;;5095903;28;20446;-84
2021/07/16 05:53:07;;;;;;;7.80;7.10;;;23.80;99.90;;;;;;5096022;28;20537;-85
2021/07/16 05:55:34;;;;;;;7.70;6.97;;;24.00;99.90;;;;;;5096012;28;20543;-84
2021/07/16 05:58:01;;;;;;;7.83;7.13;;;24.20;99.90;;;;;;5095816;28;20503;-83
2021/07/16 06:00:29;;;;;;;7.53;6.77;;;24.40;99.90;;;;;;5079995;28;21018;-85
2021/07/16 06:02:56;;;;;;;10.47;8.07;;;24.60;99.90;;;;;;5069199;28;20465;-85
2021/07/16 06:05:25;;;;;;;7.40;6.80;;;24.90;99.90;;;;;;5075065;28;20483;-85
2021/07/16 06:07:52;;;;;;;7.10;6.60;;;25.30;99.90;;;;;;5075470;28;20498;-86
2021/07/16 06:10:19;;;;;;;6.77;6.13;;;25.70;99.90;;;;;;5075602;28;20502;-85
2021/07/16 06:12:46;;;;;;;7.10;6.50;;;26.00;99.90;;;;;;5089750;28;20543;-87
2021/07/16 06:15:13;;;;;;;7.20;6.60;;;26.40;99.90;;;;;;5095595;28;20478;-86
2021/07/16 06:17:41;;;;;;;6.47;6.07;;;26.80;99.90;;;;;;5093784;28;20482;-85
2021/07/16 06:20:14;;;;;;;6.37;5.87;;;27.10;99.90;;;;;;5075409;28;20448;-85
2021/07/16 06:22:41;;;;;;;6.97;6.37;;;27.50;99.90;;;;;;5074714;28;20918;-85
2021/07/16 06:25:10;;;;;;;6.60;6.10;;;27.80;99.90;;;;;;5075204;28;20451;-85
2021/07/16 06:27:36;;;;;;;5.63;5.30;;;28.10;99.90;;;;;;5075058;28;20494;-86
2021/07/16 06:30:04;;;;;;;7.50;6.90;;;28.40;99.90;;;;;;5074891;28;20444;-86
2021/07/16 06:32:30;;;;;;;7.33;6.73;;;28.60;99.90;;;;;;5075030;28;20448;-86
2021/07/16 06:34:58;;;;;;;6.53;6.03;;;28.90;99.90;;;;;;5074968;28;20601;-87
2021/07/16 06:37:25;;;;;;;7.17;6.53;;;29.10;99.90;;;;;;5075135;28;20458;-86
2021/07/16 06:39:52;;;;;;;7.47;6.87;;;29.10;99.90;;;;;;5075041;28;20489;-87
2021/07/16 06:42:19;;;;;;;7.10;6.37;;;29.20;99.90;;;;;;5074900;28;20527;-87
2021/07/16 06:44:45;;;;;;;7.67;6.40;;;29.50;99.90;;;;;;5074539;28;20497;-88
2021/07/16 06:47:12;;;;;;;7.00;6.30;;;29.60;99.90;;;;;;5074921;28;20467;-86
2021/07/16 06:49:38;;;;;;;6.20;5.70;;;29.70;99.90;;;;;;5074696;28;20847;-86
2021/07/16 06:52:07;;;;;;;6.73;6.30;;;29.80;99.90;;;;;;5074654;28;20803;-85
2021/07/16 06:54:34;;;;;;;6.80;6.07;;;29.90;99.90;;;;;;5073647;28;20566;-86
2021/07/16 06:57:03;;;;;;;6.10;5.60;;;30.10;99.90;;;;;;5074016;28;20525;-86
2021/07/16 06:59:29;;;;;;;6.93;6.43;;;30.20;99.90;;;;;;5074341;28;20452;-85
2021/07/16 07:01:56;;;;;;;7.00;6.40;;;30.30;99.90;;;;;;5074525;28;20538;-85
2021/07/16 07:04:23;;;;;;;6.37;5.83;;;30.50;99.90;;;;;;5074341;28;20534;-86
2021/07/16 07:06:50;;;;;;;6.93;6.43;;;30.60;99.90;;;;;;5074278;28;20443;-86
2021/07/16 07:09:18;;;;;;;8.50;6.50;;;30.80;99.90;;;;;;5074345;28;20523;-86
2021/07/16 07:11:46;;;;;;;5.23;4.93;;;30.80;99.90;;;;;;5080221;28;20521;-87
2021/07/16 07:14:13;;;;;;;5.60;5.20;;;30.90;99.90;;;;;;5094541;28;20928;-88
2021/07/16 07:16:39;;;;;;;6.83;6.03;;;31.00;99.90;;;;;;5094592;28;20490;-85
2021/07/16 07:19:06;;;;;;;6.30;5.80;;;31.10;99.90;;;;;;5094437;28;20482;-85
2021/07/16 07:21:33;;;;;;;6.60;6.10;;;31.20;99.90;;;;;;5094279;28;20492;-85
2021/07/16 07:24:01;;;;;;;6.23;5.73;;;31.40;99.90;;;;;;5094285;28;20485;-87
2021/07/16 07:26:32;;;;;;;6.80;6.20;;;31.50;99.90;;;;;;5094402;28;20446;-86
2021/07/16 07:28:59;;;;;;;6.80;6.27;;;31.50;99.90;;;;;;5094506;28;20461;-86
2021/07/16 07:31:26;;;;;;;6.37;5.87;;;31.60;99.90;;;;;;5094109;28;20537;-85
2021/07/16 07:33:53;;;;;;;6.90;6.20;;;31.60;99.90;;;;;;5094202;28;20520;-85
2021/07/16 07:36:19;;;;;;;6.47;5.97;;;31.40;99.90;;;;;;5093925;28;20578;-84
2021/07/16 07:38:46;;;;;;;6.67;6.03;;;31.40;99.90;;;;;;5093907;28;20882;-85
2021/07/16 07:41:13;;;;;;;7.87;6.43;;;31.10;99.90;;;;;;5093716;28;20488;-84
2021/07/16 07:43:41;;;;;;;7.73;6.37;;;31.00;99.90;;;;;;5093885;28;20454;-84
2021/07/16 07:46:08;;;;;;;6.30;5.77;;;31.10;99.90;;;;;;5094079;28;20498;-85
2021/07/16 07:48:35;;;;;;;6.37;5.80;;;31.10;99.90;;;;;;5094008;28;20478;-84
2021/07/16 07:51:03;;;;;;;7.00;6.40;;;31.10;99.90;;;;;;5093857;28;20482;-85
2021/07/16 07:53:29;;;;;;;6.73;6.13;;;31.00;99.90;;;;;;5093791;28;20569;-85
2021/07/16 07:55:56;;;;;;;7.13;6.57;;;30.90;99.90;;;;;;5077270;28;20590;-87
2021/07/16 07:58:23;;;;;;;7.17;5.77;;;30.80;99.90;;;;;;5073710;28;20475;-88
2021/07/16 08:00:51;;;;;;;9.20;7.17;;;30.70;99.90;;;;;;5073702;28;20451;-85
2021/07/16 08:03:17;;;;;;;8.70;7.03;;;30.40;99.90;;;;;;5073333;28;20459;-86
2021/07/16 08:05:44;;;;;;;6.37;5.83;;;30.30;99.90;;;;;;5073125;28;20447;-85
2021/07/16 08:08:11;;;;;;;7.47;6.03;;;30.40;99.90;;;;;;5073336;28;20807;-85
2021/07/16 08:10:37;;;;;;;6.33;5.90;;;30.60;99.90;;;;;;5073415;28;20462;-87
2021/07/16 08:13:05;;;;;;;6.33;5.93;;;30.70;99.90;;;;;;5089939;28;20443;-86
2021/07/16 08:15:31;;;;;;;6.00;5.07;;;30.70;99.90;;;;;;5093389;28;20471;-82
2021/07/16 08:17:59;;;;;;;7.40;5.90;;;30.60;99.90;;;;;;5091938;28;20541;-79
2021/07/16 08:20:26;;;;;;;8.17;5.70;;;30.60;99.90;;;;;;5064002;28;20536;-81
2021/07/16 08:22:53;;;;;;;7.10;6.40;;;30.70;99.90;;;;;;5053356;28;20951;-81
2021/07/16 08:25:19;;;;;;;6.50;5.90;;;30.70;99.90;;;;;;5052988;28;20547;-87
2021/07/16 08:27:46;;;;;;;7.13;6.43;;;30.70;99.90;;;;;;5057237;28;20487;-82
2021/07/16 08:30:14;;;;;;;6.63;6.13;;;30.70;99.90;;;;;;5069722;28;20452;-82
2021/07/16 08:32:43;;;;;;;6.87;6.30;;;30.80;99.90;;;;;;5068981;28;20777;-82
2021/07/16 08:35:13;;;;;;;6.60;6.00;;;31.10;99.90;;;;;;5052460;28;20480;-81
2021/07/16 08:37:40;;;;;;;7.57;6.40;;;31.30;99.90;;;;;;5052692;28;20452;-81
2021/07/16 08:40:08;;;;;;;6.93;6.43;;;31.40;99.90;;;;;;5056179;28;20449;-81
2021/07/16 08:42:36;;;;;;;6.43;5.80;;;31.30;99.90;;;;;;5065793;28;20486;-82
2021/07/16 08:45:05;;;;;;;7.17;6.67;;;31.20;99.90;;;;;;5072463;28;20447;-81
2021/07/16 08:47:33;;;;;;;6.90;6.40;;;31.20;99.90;;;;;;5052734;28;20468;-81
2021/07/16 08:50:00;;;;;;;8.40;6.43;;;31.10;99.90;;;;;;5052726;28;20452;-81
2021/07/16 08:52:29;;;;;;;6.37;5.97;;;31.00;99.90;;;;;;5052854;28;20539;-81
2021/07/16 08:54:56;;;;;;;6.93;6.40;;;31.00;99.90;;;;;;5052618;28;20958;-81
2021/07/16 08:57:25;;;;;;;6.73;6.13;;;30.80;99.90;;;;;;5053917;28;20448;-82
2021/07/16 08:59:52;;;;;;;8.20;6.43;;;30.70;99.90;;;;;;5072697;28;20513;-81
2021/07/16 09:02:22;;;;;;;6.60;6.00;;;30.60;99.90;;;;;;5072608;28;20447;-80
2021/07/16 09:04:56;;;;;;;7.30;6.60;;;30.50;99.90;;;;;;5072816;28;20443;-80
2021/07/16 09:07:23;;;;;;;7.37;6.70;;;30.20;99.90;;;;;;5072979;28;20482;-80
2021/07/16 09:09:51;;;;;;;7.70;7.20;;;30.20;99.90;;;;;;5072074;28;20530;-80
2021/07/16 09:12:17;;;;;;;6.93;6.27;;;30.00;99.90;;;;;;5083105;28;20508;-80
2021/07/16 09:14:44;;;;;;;8.13;7.50;;;29.80;99.90;;;;;;5092773;28;20991;-80
2021/07/16 09:17:14;;;;;;;7.87;7.27;;;29.90;99.90;;;;;;5092422;28;21024;-80
2021/07/16 09:19:43;;;;;;;7.50;6.90;;;29.80;99.90;;;;;;5095834;28;20545;-81
2021/07/16 09:22:12;;;;;;;7.20;6.50;;;29.80;99.90;;;;;;5096767;28;20478;-81
2021/07/16 09:24:40;;;;;;;9.50;6.63;;;29.90;99.90;;;;;;5095713;28;20889;-81
2021/07/16 09:27:32;;;;;;;8.13;7.40;;;29.90;99.90;;;;;;5096432;28;20455;-81
2021/07/16 09:30:21;;;;;;;7.13;6.53;;;30.00;99.90;;;;;;5096691;28;20446;-81
2021/07/16 09:32:49;;;;;;;9.63;7.20;;;30.10;99.90;;;;;;5096417;28;20496;-81
2021/07/16 09:35:22;;;;;;;7.93;7.27;;;30.30;99.90;;;;;;5096127;28;20515;-81
2021/07/16 09:37:50;;;;;;;7.93;7.20;;;30.30;99.90;;;;;;5096169;28;20950;-81
2021/07/16 09:40:21;;;;;;;7.03;6.47;;;30.40;99.90;;;;;;5096324;28;20488;-80
2021/07/16 09:42:56;;;;;;;6.80;6.40;;;30.50;99.90;;;;;;5096360;28;20504;-81
2021/07/16 09:45:23;;;;;;;7.80;7.23;;;30.60;99.90;;;;;;5096108;28;20450;-81
2021/07/16 09:47:49;;;;;;;7.33;6.80;;;30.70;99.90;;;;;;5096086;28;20533;-81
2021/07/16 09:50:20;;;;;;;8.13;7.40;;;30.70;99.90;;;;;;5095751;28;21016;-81
2021/07/16 09:52:47;;;;;;;7.43;6.83;;;30.70;99.90;;;;;;5095763;28;20446;-80
2021/07/16 09:55:18;;;;;;;7.20;6.60;;;30.70;99.90;;;;;;5095825;28;20446;-81
2021/07/16 09:57:47;;;;;;;8.60;8.00;;;30.70;99.90;;;;;;5095852;28;20446;-81
2021/07/16 10:00:18;;;;;;;7.77;7.07;;;30.70;99.90;;;;;;5095812;28;20450;-81
2021/07/16 10:02:50;;;;;;;7.73;7.13;;;30.80;99.90;;;;;;5095696;28;20450;-81
2021/07/16 10:05:17;;;;;;;10.27;7.37;;;30.90;99.90;;;;;;5096004;28;20517;-81
2021/07/16 10:07:45;;;;;;;8.93;8.07;;;31.10;99.90;;;;;;5095766;28;20503;-81
2021/07/16 10:10:13;;;;;;;7.97;7.47;;;31.40;99.90;;;;;;5095794;28;20450;-81
2021/07/16 10:12:41;;;;;;;7.30;6.80;;;31.60;99.90;;;;;;5081932;28;20475;-81
2021/07/16 10:15:10;;;;;;;8.97;7.60;;;31.80;99.90;;;;;;5069707;28;20966;-81
2021/07/16 10:17:39;;;;;;;8.40;7.63;;;32.00;99.90;;;;;;5068663;28;20475;-80
2021/07/16 10:20:10;;;;;;;8.17;7.37;;;32.10;99.90;;;;;;5074552;28;20538;-81
2021/07/16 10:22:38;;;;;;;8.20;7.50;;;32.10;99.90;;;;;;5055363;28;20452;-81
2021/07/16 10:25:07;;;;;;;9.90;8.10;;;31.90;99.90;;;;;;5055104;28;21006;-81
2021/07/16 10:27:34;;;;;;;8.07;7.30;;;31.90;99.90;;;;;;5054968;28;20543;-81
2021/07/16 10:30:08;;;;;;;8.90;8.10;;;31.70;99.90;;;;;;5053591;28;20552;-79
2021/07/16 10:32:44;;;;;;;7.70;7.20;;;31.60;99.90;;;;;;5055075;28;20453;-80
2021/07/16 10:35:18;;;;;;;8.13;7.43;;;31.70;99.90;;;;;;5057263;28;20494;-81
2021/07/16 10:37:46;;;;;;;8.20;7.60;;;31.90;99.90;;;;;;5074814;28;20528;-81
2021/07/16 10:40:35;;;;;;;8.27;7.67;;;32.20;99.90;;;;;;5067419;28;20534;-86
2021/07/16 10:43:02;;;;;;;7.17;6.57;;;32.40;99.90;;;;;;5054954;28;20453;-81
2021/07/16 10:45:33;;;;;;;7.63;6.93;;;32.70;99.90;;;;;;5054465;28;20499;-81
2021/07/16 10:48:16;;;;;;;6.70;6.30;;;32.80;99.90;;;;;;5055975;28;20881;-80
2021/07/16 10:50:44;;;;;;;9.27;6.50;;;32.90;99.90;;;;;;5063511;28;20483;-80
2021/07/16 10:53:17;;;;;;;7.50;6.60;;;33.10;99.90;;;;;;5074674;28;20857;-80
2021/07/16 10:56:05;;;;;;;6.73;6.13;;;33.40;99.90;;;;;;5074392;28;20490;-80
2021/07/16 10:58:43;;;;;;;7.10;6.30;;;33.80;99.90;;;;;;5073271;28;20458;-80
2021/07/16 11:01:10;;;;;;;6.00;5.50;;;34.00;99.90;;;;;;5069317;28;20455;-81
2021/07/16 11:03:40;;;;;;;6.57;5.93;;;34.00;99.90;;;;;;5074328;28;20483;-81
2021/07/16 11:06:08;;;;;;;9.43;6.83;;;34.00;99.90;;;;;;5074057;28;20441;-81
2021/07/16 11:08:58;;;;;;;6.90;6.40;;;33.70;99.90;;;;;;5073863;28;20530;-81
2021/07/16 11:11:40;;;;;;;9.70;6.20;;;33.60;99.90;;;;;;5073549;28;20443;-81
2021/07/16 11:14:21;;;;;;;6.70;6.00;;;33.70;99.90;;;;;;5073761;28;20443;-81
2021/07/16 11:16:48;;;;;;;9.40;6.40;;;33.70;99.90;;;;;;5073590;28;20471;-81
2021/07/16 11:19:30;;;;;;;6.93;6.33;;;33.70;99.90;;;;;;5073714;28;20444;-81
2021/07/16 11:22:12;;;;;;;6.17;5.57;;;33.80;99.90;;;;;;5073419;28;20451;-81
2021/07/16 11:24:45;;;;;;;7.43;5.90;;;33.60;99.90;;;;;;5073773;28;20447;-80
2021/07/16 11:27:17;;;;;;;9.10;6.33;;;33.60;99.90;;;;;;5073459;28;21025;-81
2021/07/16 11:29:45;;;;;;;5.43;5.03;;;33.60;99.90;;;;;;5073126;28;20998;-80
2021/07/16 11:32:15;;;;;;;6.37;5.80;;;33.40;99.90;;;;;;5071338;28;20938;-81
2021/07/16 11:34:52;;;;;;;6.80;5.70;;;33.10;99.90;;;;;;5072609;28;20453;-80
2021/07/16 11:37:27;;;;;;;6.10;5.50;;;32.90;99.90;;;;;;5072551;28;20447;-80
2021/07/16 11:40:00;;;;;;;6.23;5.83;;;32.90;99.90;;;;;;5073196;28;20451;-80
2021/07/16 11:42:27;;;;;;;5.50;5.10;;;32.90;99.90;;;;;;5072318;28;20490;-80
2021/07/16 11:44:54;;;;;;;7.43;6.83;;;32.90;99.90;;;;;;5073286;28;20487;-80
2021/07/16 11:47:22;;;;;;;5.40;5.00;;;33.20;99.90;;;;;;5073483;28;20518;-80
2021/07/16 11:49:52;;;;;;;5.87;5.37;;;33.40;99.90;;;;;;5073843;28;20447;-80
2021/07/16 11:52:22;;;;;;;6.70;5.90;;;33.60;99.90;;;;;;5073571;28;20906;-80
2021/07/16 11:54:51;;;;;;;7.23;5.37;;;33.50;99.90;;;;;;5073369;28;20946;-80
2021/07/16 11:57:18;;;;;;;6.30;5.80;;;33.30;99.90;;;;;;5073052;28;20479;-80
2021/07/16 11:59:49;;;;;;;7.50;5.27;;;33.30;99.90;;;;;;5073600;28;20848;-80
2021/07/16 12:02:17;;;;;;;6.83;5.50;;;33.10;99.90;;;;;;5073338;28;20870;-80
2021/07/16 12:04:46;;;;;;;6.93;6.43;;;33.10;99.90;;;;;;5073442;28;20531;-80
2021/07/16 12:07:15;;;;;;;5.30;4.80;;;32.80;99.90;;;;;;5073399;28;20526;-80
2021/07/16 12:09:44;;;;;;;7.33;6.07;;;32.60;99.90;;;;;;5073158;28;20880;-80
2021/07/16 12:12:12;;;;;;;6.13;5.60;;;32.60;99.90;;;;;;5082604;28;20968;-80
2021/07/16 12:14:47;;;;;;;6.80;6.10;;;32.60;99.90;;;;;;5093356;28;20483;-80
2021/07/16 12:17:15;;;;;;;5.40;5.00;;;32.80;99.90;;;;;;5093506;28;20849;-80
2021/07/16 12:19:42;;;;;;;5.33;4.60;;;33.00;99.90;;;;;;5093197;28;20493;-80
2021/07/16 12:22:08;;;;;;;5.90;5.40;;;33.10;99.90;;;;;;5093173;28;20557;-80
2021/07/16 12:24:36;;;;;;;5.30;4.90;;;33.10;99.90;;;;;;5093165;28;20939;-80
2021/07/16 12:27:07;;;;;;;7.17;5.07;;;33.10;99.90;;;;;;5093089;28;20569;-80
2021/07/16 12:29:34;;;;;;;5.47;5.07;;;33.10;99.90;;;;;;5093260;28;20486;-80
2021/07/16 12:32:01;;;;;;;5.00;4.60;;;33.00;99.90;;;;;;5093151;28;20539;-80
2021/07/16 12:34:28;;;;;;;5.60;5.10;;;32.80;99.90;;;;;;5093199;28;20550;-80
2021/07/16 12:37:09;;;;;;;5.37;4.70;;;32.70;99.90;;;;;;5092842;28;20458;-80
2021/07/16 12:39:38;;;;;;;6.10;5.40;;;32.70;99.90;;;;;;5093029;28;20892;-80
2021/07/16 12:42:11;;;;;;;5.03;4.70;;;32.70;99.90;;;;;;5092947;28;20451;-80
2021/07/16 12:44:37;;;;;;;5.10;4.70;;;32.80;99.90;;;;;;5092893;28;20449;-80
2021/07/16 12:47:04;;;;;;;5.60;5.10;;;32.90;99.90;;;;;;5092814;28;20564;-80
2021/07/16 12:49:31;;;;;;;5.63;5.13;;;33.10;99.90;;;;;;5092916;28;20497;-80
2021/07/16 12:52:08;;;;;;;4.57;4.27;;;33.30;99.90;;;;;;5093005;28;20513;-81